sensor_id;sensor_type;location;lat;lon;timestamp;pressure;altitude;pressure_sealevel;temperature;humidity
68822;BME280;55834;50.870;4.606;2023-04-01T00:00:44;98717.97;;;7.27;70.02
68822;BME280;55834;50.870;4.606;2023-04-01T00:03:10;98724.22;;;7.05;70.37
68822;BME280;55834;50.870;4.606;2023-04-01T00:05:37;98723.97;;;6.92;71.20
68822;BME280;55834;50.870;4.606;2023-04-01T00:08:02;98729.41;;;7.26;70.20
68822;BME280;55834;50.870;4.606;2023-04-01T00:10:28;98724.81;;;7.67;69.13
68822;BME280;55834;50.870;4.606;2023-04-01T00:12:53;98729.47;;;7.43;69.21
68822;BME280;55834;50.870;4.606;2023-04-01T00:15:18;98718.91;;;7.44;69.70
68822;BME280;55834;50.870;4.606;2023-04-01T00:17:44;98723.16;;;8.01;68.00
68822;BME280;55834;50.870;4.606;2023-04-01T00:20:10;98723.84;;;7.87;68.78
68822;BME280;55834;50.870;4.606;2023-04-01T00:22:35;98722.25;;;7.10;69.75
68822;BME280;55834;50.870;4.606;2023-04-01T00:25:01;98725.66;;;7.50;69.35
68822;BME280;55834;50.870;4.606;2023-04-01T00:27:27;98726.38;;;7.71;68.11
68822;BME280;55834;50.870;4.606;2023-04-01T00:29:52;98729.31;;;7.65;68.61
68822;BME280;55834;50.870;4.606;2023-04-01T00:32:17;98731.84;;;7.30;69.68
68822;BME280;55834;50.870;4.606;2023-04-01T00:34:43;98732.94;;;7.06;70.85
68822;BME280;55834;50.870;4.606;2023-04-01T00:37:09;98732.44;;;7.35;70.16
68822;BME280;55834;50.870;4.606;2023-04-01T00:39:35;98728.59;;;7.79;69.18
68822;BME280;55834;50.870;4.606;2023-04-01T00:42:02;98736.59;;;7.95;68.61
68822;BME280;55834;50.870;4.606;2023-04-01T00:44:31;98741.63;;;7.82;69.82
68822;BME280;55834;50.870;4.606;2023-04-01T00:46:58;98729.03;;;7.52;69.64
68822;BME280;55834;50.870;4.606;2023-04-01T00:49:29;98737.13;;;7.84;68.45
68822;BME280;55834;50.870;4.606;2023-04-01T00:51:57;98737.53;;;7.94;68.68
68822;BME280;55834;50.870;4.606;2023-04-01T00:54:25;98750.72;;;6.60;71.47
68822;BME280;55834;50.870;4.606;2023-04-01T00:57:15;98746.00;;;7.26;70.79
68822;BME280;55834;50.870;4.606;2023-04-01T00:59:46;98740.16;;;7.94;69.00
68822;BME280;55834;50.870;4.606;2023-04-01T01:02:14;98748.34;;;7.51;69.19
68822;BME280;55834;50.870;4.606;2023-04-01T01:04:40;98749.63;;;7.42;70.64
68822;BME280;55834;50.870;4.606;2023-04-01T01:12:18;98760.78;;;8.01;68.97
68822;BME280;55834;50.870;4.606;2023-04-01T01:17:35;98753.78;;;8.19;67.09
68822;BME280;55834;50.870;4.606;2023-04-01T01:20:18;98755.53;;;7.48;68.71
68822;BME280;55834;50.870;4.606;2023-04-01T01:33:39;98753.25;;;7.59;69.11
68822;BME280;55834;50.870;4.606;2023-04-01T01:36:11;98759.78;;;7.50;68.80
68822;BME280;55834;50.870;4.606;2023-04-01T01:38:38;98757.09;;;7.88;67.64
68822;BME280;55834;50.870;4.606;2023-04-01T01:41:05;98759.31;;;8.32;66.26
68822;BME280;55834;50.870;4.606;2023-04-01T01:43:36;98762.56;;;7.83;67.73
68822;BME280;55834;50.870;4.606;2023-04-01T01:46:07;98763.94;;;8.09;66.96
68822;BME280;55834;50.870;4.606;2023-04-01T01:48:36;98769.28;;;8.43;66.73
68822;BME280;55834;50.870;4.606;2023-04-01T01:51:05;98765.72;;;7.90;66.86
68822;BME280;55834;50.870;4.606;2023-04-01T01:53:31;98767.63;;;7.69;68.29
68822;BME280;55834;50.870;4.606;2023-04-01T01:55:56;98776.75;;;8.16;67.52
68822;BME280;55834;50.870;4.606;2023-04-01T01:58:25;98768.41;;;8.42;66.67
68822;BME280;55834;50.870;4.606;2023-04-01T02:00:55;98768.41;;;7.71;67.03
68822;BME280;55834;50.870;4.606;2023-04-01T02:03:23;98782.44;;;7.70;68.20
68822;BME280;55834;50.870;4.606;2023-04-01T02:05:51;98781.72;;;8.22;66.57
68822;BME280;55834;50.870;4.606;2023-04-01T02:08:23;98784.38;;;8.03;65.84
68822;BME280;55834;50.870;4.606;2023-04-01T02:11:06;98779.97;;;8.03;66.43
68822;BME280;55834;50.870;4.606;2023-04-01T02:16:13;98796.34;;;8.27;66.08
68822;BME280;55834;50.870;4.606;2023-04-01T02:18:40;98802.38;;;8.47;66.46
68822;BME280;55834;50.870;4.606;2023-04-01T02:21:08;98802.06;;;7.82;67.31
68822;BME280;55834;50.870;4.606;2023-04-01T02:23:35;98797.75;;;7.62;68.66
68822;BME280;55834;50.870;4.606;2023-04-01T02:26:02;98812.00;;;7.37;69.40
68822;BME280;55834;50.870;4.606;2023-04-01T02:28:31;98813.09;;;6.73;72.41
68822;BME280;55834;50.870;4.606;2023-04-01T02:30:59;98808.94;;;7.65;70.20
68822;BME280;55834;50.870;4.606;2023-04-01T02:33:25;98813.34;;;7.65;68.06
68822;BME280;55834;50.870;4.606;2023-04-01T02:35:52;98824.53;;;7.87;68.54
68822;BME280;55834;50.870;4.606;2023-04-01T02:38:17;98818.66;;;7.07;68.85
68822;BME280;55834;50.870;4.606;2023-04-01T02:40:50;98830.47;;;6.54;71.17
68822;BME280;55834;50.870;4.606;2023-04-01T02:43:16;98823.44;;;6.76;70.66
68822;BME280;55834;50.870;4.606;2023-04-01T02:45:42;98826.94;;;7.16;70.24
68822;BME280;55834;50.870;4.606;2023-04-01T02:48:08;98824.66;;;6.69;71.38
68822;BME280;55834;50.870;4.606;2023-04-01T02:50:33;98825.03;;;7.20;70.82
68822;BME280;55834;50.870;4.606;2023-04-01T02:53:00;98833.56;;;7.63;68.43
68822;BME280;55834;50.870;4.606;2023-04-01T02:55:25;98842.25;;;7.65;68.24
68822;BME280;55834;50.870;4.606;2023-04-01T02:57:51;98836.31;;;7.41;68.78
68822;BME280;55834;50.870;4.606;2023-04-01T03:00:16;98829.97;;;7.65;67.68
68822;BME280;55834;50.870;4.606;2023-04-01T03:02:42;98849.69;;;7.36;68.06
68822;BME280;55834;50.870;4.606;2023-04-01T03:05:09;98842.22;;;7.27;68.61
68822;BME280;55834;50.870;4.606;2023-04-01T03:07:35;98852.28;;;6.76;69.66
68822;BME280;55834;50.870;4.606;2023-04-01T03:10:00;98846.13;;;7.37;68.50
68822;BME280;55834;50.870;4.606;2023-04-01T03:12:26;98849.44;;;7.22;68.63
68822;BME280;55834;50.870;4.606;2023-04-01T03:14:51;98857.47;;;7.38;67.82
68822;BME280;55834;50.870;4.606;2023-04-01T03:17:16;98849.75;;;7.54;67.61
68822;BME280;55834;50.870;4.606;2023-04-01T03:19:42;98867.22;;;7.55;68.15
68822;BME280;55834;50.870;4.606;2023-04-01T03:22:09;98872.31;;;7.39;68.04
68822;BME280;55834;50.870;4.606;2023-04-01T03:24:35;98868.28;;;6.91;70.04
68822;BME280;55834;50.870;4.606;2023-04-01T03:27:01;98868.66;;;7.22;69.33
68822;BME280;55834;50.870;4.606;2023-04-01T03:29:26;98875.94;;;6.54;71.92
68822;BME280;55834;50.870;4.606;2023-04-01T03:31:51;98873.34;;;6.95;69.87
68822;BME280;55834;50.870;4.606;2023-04-01T03:34:17;98875.50;;;7.06;70.15
68822;BME280;55834;50.870;4.606;2023-04-01T03:36:42;98884.47;;;6.80;69.91
68822;BME280;55834;50.870;4.606;2023-04-01T03:39:07;98887.88;;;7.62;68.66
68822;BME280;55834;50.870;4.606;2023-04-01T03:41:36;98889.72;;;7.41;68.71
68822;BME280;55834;50.870;4.606;2023-04-01T03:44:02;98892.91;;;6.46;71.92
68822;BME280;55834;50.870;4.606;2023-04-01T03:46:27;98903.13;;;6.94;70.16
68822;BME280;55834;50.870;4.606;2023-04-01T03:48:52;98907.72;;;7.49;69.39
68822;BME280;55834;50.870;4.606;2023-04-01T03:51:18;98887.31;;;7.16;69.75
68822;BME280;55834;50.870;4.606;2023-04-01T03:53:43;98896.63;;;6.83;70.24
68822;BME280;55834;50.870;4.606;2023-04-01T03:56:09;98901.41;;;6.51;71.58
68822;BME280;55834;50.870;4.606;2023-04-01T03:58:35;98892.34;;;7.21;69.07
68822;BME280;55834;50.870;4.606;2023-04-01T04:01:01;98895.53;;;7.48;67.61
68822;BME280;55834;50.870;4.606;2023-04-01T04:03:26;98894.69;;;7.48;68.57
68822;BME280;55834;50.870;4.606;2023-04-01T04:05:52;98903.97;;;7.36;68.23
68822;BME280;55834;50.870;4.606;2023-04-01T04:08:17;98904.19;;;7.11;69.02
68822;BME280;55834;50.870;4.606;2023-04-01T04:10:43;98920.81;;;7.69;67.72
68822;BME280;55834;50.870;4.606;2023-04-01T04:13:09;98915.00;;;6.39;71.17
68822;BME280;55834;50.870;4.606;2023-04-01T04:15:34;98913.69;;;6.93;70.78
68822;BME280;55834;50.870;4.606;2023-04-01T04:17:59;98915.44;;;6.72;69.86
68822;BME280;55834;50.870;4.606;2023-04-01T04:20:25;98930.56;;;6.21;71.92
68822;BME280;55834;50.870;4.606;2023-04-01T04:22:50;98927.81;;;6.68;71.72
68822;BME280;55834;50.870;4.606;2023-04-01T04:25:15;98929.16;;;6.78;71.00
68822;BME280;55834;50.870;4.606;2023-04-01T04:27:41;98930.75;;;6.61;71.11
68822;BME280;55834;50.870;4.606;2023-04-01T04:30:07;98927.97;;;7.27;70.14
68822;BME280;55834;50.870;4.606;2023-04-01T04:32:33;98934.03;;;6.44;72.60
68822;BME280;55834;50.870;4.606;2023-04-01T04:34:58;98929.88;;;7.23;70.60
68822;BME280;55834;50.870;4.606;2023-04-01T04:37:24;98939.00;;;7.14;70.01
68822;BME280;55834;50.870;4.606;2023-04-01T04:39:51;98941.63;;;7.74;67.86
68822;BME280;55834;50.870;4.606;2023-04-01T04:42:16;98941.53;;;7.76;67.77
68822;BME280;55834;50.870;4.606;2023-04-01T04:44:42;98957.63;;;6.44;70.59
68822;BME280;55834;50.870;4.606;2023-04-01T04:47:07;98952.88;;;7.57;69.94
68822;BME280;55834;50.870;4.606;2023-04-01T04:49:32;98947.69;;;6.30;71.83
68822;BME280;55834;50.870;4.606;2023-04-01T04:51:58;98947.25;;;6.19;72.46
68822;BME280;55834;50.870;4.606;2023-04-01T04:54:23;98954.47;;;6.57;72.41
68822;BME280;55834;50.870;4.606;2023-04-01T04:56:51;98953.06;;;7.34;69.92
68822;BME280;55834;50.870;4.606;2023-04-01T04:59:17;98960.81;;;6.74;70.57
68822;BME280;55834;50.870;4.606;2023-04-01T05:01:42;98968.09;;;6.67;70.92
68822;BME280;55834;50.870;4.606;2023-04-01T05:04:08;98961.72;;;7.15;70.02
68822;BME280;55834;50.870;4.606;2023-04-01T05:06:33;98967.69;;;7.19;69.92
68822;BME280;55834;50.870;4.606;2023-04-01T05:08:58;98980.78;;;6.98;71.39
68822;BME280;55834;50.870;4.606;2023-04-01T05:11:24;98982.22;;;7.46;69.46
68822;BME280;55834;50.870;4.606;2023-04-01T05:13:51;98984.03;;;7.26;69.32
68822;BME280;55834;50.870;4.606;2023-04-01T05:16:18;98982.16;;;7.87;67.94
68822;BME280;55834;50.870;4.606;2023-04-01T05:18:44;98987.84;;;7.78;68.12
68822;BME280;55834;50.870;4.606;2023-04-01T05:21:13;98996.03;;;7.91;67.48
68822;BME280;55834;50.870;4.606;2023-04-01T05:23:39;98991.09;;;7.23;67.73
68822;BME280;55834;50.870;4.606;2023-04-01T05:26:06;99006.22;;;7.39;67.40
68822;BME280;55834;50.870;4.606;2023-04-01T05:28:32;99004.72;;;7.33;69.03
68822;BME280;55834;50.870;4.606;2023-04-01T05:31:01;99004.31;;;7.22;70.26
68822;BME280;55834;50.870;4.606;2023-04-01T05:33:28;99001.50;;;7.47;67.89
68822;BME280;55834;50.870;4.606;2023-04-01T05:35:54;99009.84;;;7.76;67.67
68822;BME280;55834;50.870;4.606;2023-04-01T05:38:20;99012.00;;;7.86;67.31
68822;BME280;55834;50.870;4.606;2023-04-01T05:40:45;99023.47;;;8.04;66.54
68822;BME280;55834;50.870;4.606;2023-04-01T05:43:10;99021.53;;;7.89;67.80
68822;BME280;55834;50.870;4.606;2023-04-01T05:45:36;99025.44;;;7.60;67.26
68822;BME280;55834;50.870;4.606;2023-04-01T05:48:02;99030.94;;;7.74;67.71
68822;BME280;55834;50.870;4.606;2023-04-01T05:50:27;99037.44;;;6.59;70.81
68822;BME280;55834;50.870;4.606;2023-04-01T05:52:53;99028.50;;;7.08;69.86
68822;BME280;55834;50.870;4.606;2023-04-01T05:55:18;99026.34;;;7.18;69.92
68822;BME280;55834;50.870;4.606;2023-04-01T05:57:45;99042.06;;;6.75;70.52
68822;BME280;55834;50.870;4.606;2023-04-01T06:00:11;99036.13;;;7.35;69.54
68822;BME280;55834;50.870;4.606;2023-04-01T06:02:37;99041.81;;;6.82;71.21
68822;BME280;55834;50.870;4.606;2023-04-01T06:05:13;99040.25;;;7.20;69.72
68822;BME280;55834;50.870;4.606;2023-04-01T06:07:40;99054.59;;;7.33;69.34
68822;BME280;55834;50.870;4.606;2023-04-01T06:10:17;99043.44;;;7.49;68.44
68822;BME280;55834;50.870;4.606;2023-04-01T06:15:32;99074.09;;;6.60;70.79
68822;BME280;55834;50.870;4.606;2023-04-01T06:24:05;99065.84;;;6.93;70.03
68822;BME280;55834;50.870;4.606;2023-04-01T06:29:28;99080.69;;;6.94;69.75
68822;BME280;55834;50.870;4.606;2023-04-01T06:35:07;99087.56;;;6.27;71.63
68822;BME280;55834;50.870;4.606;2023-04-01T06:37:57;99093.69;;;6.75;70.49
68822;BME280;55834;50.870;4.606;2023-04-01T06:40:53;99085.44;;;7.06;70.33
68822;BME280;55834;50.870;4.606;2023-04-01T06:49:04;99103.00;;;6.82;71.25
68822;BME280;55834;50.870;4.606;2023-04-01T06:54:31;99099.81;;;7.40;69.50
68822;BME280;55834;50.870;4.606;2023-04-01T06:57:14;99105.00;;;6.97;70.80
68822;BME280;55834;50.870;4.606;2023-04-01T06:59:44;99115.28;;;6.34;71.23
68822;BME280;55834;50.870;4.606;2023-04-01T07:04:44;99123.00;;;6.61;71.95
68822;BME280;55834;50.870;4.606;2023-04-01T07:07:21;99139.94;;;6.29;71.26
68822;BME280;55834;50.870;4.606;2023-04-01T07:09:52;99129.19;;;6.84;71.15
68822;BME280;55834;50.870;4.606;2023-04-01T07:15:06;99134.44;;;6.84;70.91
68822;BME280;55834;50.870;4.606;2023-04-01T07:17:39;99139.31;;;7.37;68.33
68822;BME280;55834;50.870;4.606;2023-04-01T07:20:20;99142.50;;;7.23;69.29
68822;BME280;55834;50.870;4.606;2023-04-01T07:22:49;99148.78;;;6.97;69.05
68822;BME280;55834;50.870;4.606;2023-04-01T07:25:20;99151.50;;;7.60;69.29
68822;BME280;55834;50.870;4.606;2023-04-01T07:27:46;99152.28;;;7.41;70.31
68822;BME280;55834;50.870;4.606;2023-04-01T07:33:16;99143.09;;;8.14;68.80
68822;BME280;55834;50.870;4.606;2023-04-01T07:36:03;99156.91;;;7.98;66.70
68822;BME280;55834;50.870;4.606;2023-04-01T07:41:18;99166.59;;;7.55;68.10
68822;BME280;55834;50.870;4.606;2023-04-01T07:49:10;99174.13;;;7.42;69.52
68822;BME280;55834;50.870;4.606;2023-04-01T07:52:35;99185.94;;;7.08;69.38
68822;BME280;55834;50.870;4.606;2023-04-01T07:54:49;99187.16;;;6.99;70.54
68822;BME280;55834;50.870;4.606;2023-04-01T08:02:50;99195.84;;;6.78;69.97
68822;BME280;55834;50.870;4.606;2023-04-01T08:05:27;99194.31;;;6.47;69.82
68822;BME280;55834;50.870;4.606;2023-04-01T08:10:52;99206.50;;;7.42;68.32
68822;BME280;55834;50.870;4.606;2023-04-01T08:15:57;99204.16;;;7.13;69.83
68822;BME280;55834;50.870;4.606;2023-04-01T08:21:00;99217.00;;;7.64;68.40
68822;BME280;55834;50.870;4.606;2023-04-01T08:23:30;99216.97;;;7.86;67.16
68822;BME280;55834;50.870;4.606;2023-04-01T08:28:47;99222.09;;;7.23;69.43
68822;BME280;55834;50.870;4.606;2023-04-01T08:31:37;99232.97;;;7.80;68.62
68822;BME280;55834;50.870;4.606;2023-04-01T08:34:08;99237.25;;;7.61;68.80
68822;BME280;55834;50.870;4.606;2023-04-01T08:36:38;99234.66;;;7.39;68.30
68822;BME280;55834;50.870;4.606;2023-04-01T08:39:16;99243.00;;;7.03;69.23
68822;BME280;55834;50.870;4.606;2023-04-01T08:50:28;99251.72;;;8.15;68.20
68822;BME280;55834;50.870;4.606;2023-04-01T08:53:21;99257.97;;;7.90;68.45
68822;BME280;55834;50.870;4.606;2023-04-01T08:56:10;99260.09;;;7.37;69.74
68822;BME280;55834;50.870;4.606;2023-04-01T09:06:35;99270.00;;;7.52;70.14
68822;BME280;55834;50.870;4.606;2023-04-01T09:09:12;99272.81;;;7.91;69.31
68822;BME280;55834;50.870;4.606;2023-04-01T09:15:22;99277.50;;;7.61;68.49
68822;BME280;55834;50.870;4.606;2023-04-01T09:18:21;99276.84;;;8.00;68.98
68822;BME280;55834;50.870;4.606;2023-04-01T09:29:05;99289.38;;;8.16;67.91
68822;BME280;55834;50.870;4.606;2023-04-01T09:31:57;99279.13;;;8.50;67.63
68822;BME280;55834;50.870;4.606;2023-04-01T09:47:51;99305.56;;;7.61;69.66
68822;BME280;55834;50.870;4.606;2023-04-01T09:53:41;99306.75;;;8.20;68.86
68822;BME280;55834;50.870;4.606;2023-04-01T10:09:48;99328.81;;;7.94;67.84
68822;BME280;55834;50.870;4.606;2023-04-01T10:18:47;99338.03;;;7.82;69.46
68822;BME280;55834;50.870;4.606;2023-04-01T10:30:24;99355.81;;;8.19;66.54
68822;BME280;55834;50.870;4.606;2023-04-01T10:49:54;99342.84;;;9.18;64.70
68822;BME280;55834;50.870;4.606;2023-04-01T10:52:45;99347.13;;;8.80;64.60
68822;BME280;55834;50.870;4.606;2023-04-01T10:58:29;99348.44;;;9.11;65.81
68822;BME280;55834;50.870;4.606;2023-04-01T11:09:45;99366.66;;;9.55;65.50
68822;BME280;55834;50.870;4.606;2023-04-01T11:20:33;99383.66;;;8.01;67.07
68822;BME280;55834;50.870;4.606;2023-04-01T11:28:27;99381.00;;;8.47;67.01
68822;BME280;55834;50.870;4.606;2023-04-01T11:33:46;99389.47;;;8.96;64.63
68822;BME280;55834;50.870;4.606;2023-04-01T11:36:42;99394.69;;;7.65;69.49
68822;BME280;55834;50.870;4.606;2023-04-01T11:39:32;99397.47;;;8.30;67.33
68822;BME280;55834;50.870;4.606;2023-04-01T11:42:24;99398.06;;;8.58;66.18
68822;BME280;55834;50.870;4.606;2023-04-01T11:50:40;99404.25;;;7.19;70.66
68822;BME280;55834;50.870;4.606;2023-04-01T11:53:23;99412.91;;;8.59;68.08
68822;BME280;55834;50.870;4.606;2023-04-01T11:56:10;99407.56;;;9.24;65.71
68822;BME280;55834;50.870;4.606;2023-04-01T12:02:03;99427.91;;;8.13;69.03
68822;BME280;55834;50.870;4.606;2023-04-01T12:04:47;99424.94;;;8.65;67.41
68822;BME280;55834;50.870;4.606;2023-04-01T12:26:47;99446.84;;;9.28;65.98
68822;BME280;55834;50.870;4.606;2023-04-01T12:35:22;99460.50;;;8.53;67.17
68822;BME280;55834;50.870;4.606;2023-04-01T12:38:21;99466.94;;;8.24;67.33
68822;BME280;55834;50.870;4.606;2023-04-01T12:41:11;99467.00;;;8.67;66.66
68822;BME280;55834;50.870;4.606;2023-04-01T12:50:16;99478.88;;;8.55;66.50
68822;BME280;55834;50.870;4.606;2023-04-01T12:53:06;99488.41;;;8.35;67.95
68822;BME280;55834;50.870;4.606;2023-04-01T12:55:42;99485.28;;;8.26;67.98
68822;BME280;55834;50.870;4.606;2023-04-01T13:01:34;99492.94;;;8.32;68.29
68822;BME280;55834;50.870;4.606;2023-04-01T13:04:44;99495.63;;;8.52;66.86
68822;BME280;55834;50.870;4.606;2023-04-01T13:12:52;99490.44;;;9.15;65.78
68822;BME280;55834;50.870;4.606;2023-04-01T13:15:28;99506.31;;;8.02;67.52
68822;BME280;55834;50.870;4.606;2023-04-01T13:18:20;99502.88;;;7.52;69.66
68822;BME280;55834;50.870;4.606;2023-04-01T13:21:16;99512.06;;;7.65;70.51
68822;BME280;55834;50.870;4.606;2023-04-01T13:23:56;99511.34;;;8.32;67.87
68822;BME280;55834;50.870;4.606;2023-04-01T13:43:52;99523.03;;;8.47;68.06
68822;BME280;55834;50.870;4.606;2023-04-01T13:46:35;99534.88;;;7.88;67.99
68822;BME280;55834;50.870;4.606;2023-04-01T14:09:51;99553.63;;;7.27;70.23
68822;BME280;55834;50.870;4.606;2023-04-01T14:12:31;99553.88;;;7.71;70.77
68822;BME280;55834;50.870;4.606;2023-04-01T14:15:39;99553.56;;;8.51;68.09
68822;BME280;55834;50.870;4.606;2023-04-01T14:27:16;99572.78;;;7.81;65.42
68822;BME280;55834;50.870;4.606;2023-04-01T14:30:04;99569.63;;;7.19;67.97
68822;BME280;55834;50.870;4.606;2023-04-01T14:35:25;99581.84;;;7.72;68.72
68822;BME280;55834;50.870;4.606;2023-04-01T14:38:23;99576.03;;;7.87;67.83
68822;BME280;55834;50.870;4.606;2023-04-01T14:52:10;99583.13;;;8.57;68.44
68822;BME280;55834;50.870;4.606;2023-04-01T14:54:37;99582.53;;;8.73;66.48
68822;BME280;55834;50.870;4.606;2023-04-01T14:57:23;99586.41;;;8.63;66.08
68822;BME280;55834;50.870;4.606;2023-04-01T15:00:16;99592.97;;;8.29;68.25
68822;BME280;55834;50.870;4.606;2023-04-01T15:03:06;99594.59;;;9.44;66.03
68822;BME280;55834;50.870;4.606;2023-04-01T15:13:53;99605.78;;;8.62;65.92
68822;BME280;55834;50.870;4.606;2023-04-01T15:16:27;99612.63;;;9.33;64.14
68822;BME280;55834;50.870;4.606;2023-04-01T15:19:16;99612.66;;;8.66;65.25
68822;BME280;55834;50.870;4.606;2023-04-01T15:41:16;99634.78;;;8.60;63.91
68822;BME280;55834;50.870;4.606;2023-04-01T15:43:47;99641.41;;;8.70;62.78
68822;BME280;55834;50.870;4.606;2023-04-01T15:49:05;99650.91;;;7.49;65.77
68822;BME280;55834;50.870;4.606;2023-04-01T15:51:48;99649.00;;;8.31;65.90
68822;BME280;55834;50.870;4.606;2023-04-01T15:54:27;99653.63;;;7.99;65.69
68822;BME280;55834;50.870;4.606;2023-04-01T16:00:06;99656.69;;;8.12;65.33
68822;BME280;55834;50.870;4.606;2023-04-01T16:02:48;99661.16;;;8.33;64.19
68822;BME280;55834;50.870;4.606;2023-04-01T16:16:58;99676.06;;;8.34;62.76
68822;BME280;55834;50.870;4.606;2023-04-01T16:19:45;99674.13;;;8.14;64.24
68822;BME280;55834;50.870;4.606;2023-04-01T16:22:37;99682.47;;;8.01;64.34
68822;BME280;55834;50.870;4.606;2023-04-01T16:30:46;99679.66;;;8.55;62.35
68822;BME280;55834;50.870;4.606;2023-04-01T16:35:50;99688.59;;;8.75;62.68
68822;BME280;55834;50.870;4.606;2023-04-01T16:38:33;99691.81;;;9.05;62.06
68822;BME280;55834;50.870;4.606;2023-04-01T16:57:52;99712.59;;;8.42;65.46
68822;BME280;55834;50.870;4.606;2023-04-01T17:03:44;99720.53;;;7.89;65.87
68822;BME280;55834;50.870;4.606;2023-04-01T17:06:28;99724.34;;;8.07;65.86
68822;BME280;55834;50.870;4.606;2023-04-01T17:14:36;99737.34;;;7.29;67.67
68822;BME280;55834;50.870;4.606;2023-04-01T17:35:16;99752.25;;;7.56;67.52
68822;BME280;55834;50.870;4.606;2023-04-01T17:51:16;99772.66;;;7.48;67.13
68822;BME280;55834;50.870;4.606;2023-04-01T17:59:37;99786.59;;;7.50;66.81
68822;BME280;55834;50.870;4.606;2023-04-01T18:21:22;99827.72;;;7.21;68.58
68822;BME280;55834;50.870;4.606;2023-04-01T18:23:55;99821.88;;;7.69;67.39
68822;BME280;55834;50.870;4.606;2023-04-01T18:26:26;99830.16;;;7.28;67.66
68822;BME280;55834;50.870;4.606;2023-04-01T18:29:24;99830.25;;;7.24;68.31
68822;BME280;55834;50.870;4.606;2023-04-01T18:32:35;99831.84;;;7.58;67.78
68822;BME280;55834;50.870;4.606;2023-04-01T18:37:55;99845.41;;;6.84;69.83
68822;BME280;55834;50.870;4.606;2023-04-01T18:40:38;99844.16;;;6.63;71.25
68822;BME280;55834;50.870;4.606;2023-04-01T18:43:32;99850.00;;;6.04;73.61
68822;BME280;55834;50.870;4.606;2023-04-01T18:46:27;99860.13;;;6.55;72.13
68822;BME280;55834;50.870;4.606;2023-04-01T18:49:13;99844.22;;;7.55;69.39
68822;BME280;55834;50.870;4.606;2023-04-01T18:51:47;99868.31;;;6.77;69.88
68822;BME280;55834;50.870;4.606;2023-04-01T18:54:31;99864.50;;;6.20;71.75
68822;BME280;55834;50.870;4.606;2023-04-01T18:57:11;99873.41;;;6.47;70.81
68822;BME280;55834;50.870;4.606;2023-04-01T18:59:41;99873.31;;;6.86;70.26
68822;BME280;55834;50.870;4.606;2023-04-01T19:04:52;99886.47;;;5.76;72.01
68822;BME280;55834;50.870;4.606;2023-04-01T19:18:30;99898.72;;;6.50;70.03
68822;BME280;55834;50.870;4.606;2023-04-01T19:26:53;99926.78;;;6.45;71.17
68822;BME280;55834;50.870;4.606;2023-04-01T19:35:18;99931.25;;;6.41;70.35
68822;BME280;55834;50.870;4.606;2023-04-01T19:56:58;99953.69;;;6.17;73.23
68822;BME280;55834;50.870;4.606;2023-04-01T19:59:50;99953.34;;;6.68;71.80
68822;BME280;55834;50.870;4.606;2023-04-01T20:04:55;99960.63;;;6.18;73.39
68822;BME280;55834;50.870;4.606;2023-04-01T20:07:37;99963.41;;;6.49;70.71
68822;BME280;55834;50.870;4.606;2023-04-01T20:10:20;99966.28;;;6.00;73.68
68822;BME280;55834;50.870;4.606;2023-04-01T20:13:21;99982.63;;;5.26;75.21
68822;BME280;55834;50.870;4.606;2023-04-01T20:16:00;99974.97;;;6.41;73.46
68822;BME280;55834;50.870;4.606;2023-04-01T20:18:34;99972.38;;;6.78;72.75
68822;BME280;55834;50.870;4.606;2023-04-01T20:21:17;99972.09;;;7.54;70.62
68822;BME280;55834;50.870;4.606;2023-04-01T20:26:38;99984.44;;;7.18;70.42
68822;BME280;55834;50.870;4.606;2023-04-01T20:29:44;99989.41;;;6.59;70.77
68822;BME280;55834;50.870;4.606;2023-04-01T20:35:35;100005.97;;;6.61;71.17
68822;BME280;55834;50.870;4.606;2023-04-01T20:40:49;100012.97;;;7.64;67.40
68822;BME280;55834;50.870;4.606;2023-04-01T20:43:40;100012.47;;;7.81;68.55
68822;BME280;55834;50.870;4.606;2023-04-01T20:52:31;100031.41;;;6.57;70.08
68822;BME280;55834;50.870;4.606;2023-04-01T20:55:19;100033.63;;;7.45;69.65
68822;BME280;55834;50.870;4.606;2023-04-01T21:01:01;100038.75;;;8.14;68.18
68822;BME280;55834;50.870;4.606;2023-04-01T21:09:20;100060.19;;;6.60;69.94
68822;BME280;55834;50.870;4.606;2023-04-01T21:19:49;100068.44;;;7.19;69.58
68822;BME280;55834;50.870;4.606;2023-04-01T21:22:31;100064.34;;;7.08;69.04
68822;BME280;55834;50.870;4.606;2023-04-01T21:42:18;100097.63;;;7.06;69.31
68822;BME280;55834;50.870;4.606;2023-04-01T21:51:20;100112.41;;;8.72;67.04
68822;BME280;55834;50.870;4.606;2023-04-01T21:54:18;100117.53;;;8.47;66.26
68822;BME280;55834;50.870;4.606;2023-04-01T21:59:23;100125.72;;;7.38;70.23
68822;BME280;55834;50.870;4.606;2023-04-01T22:05:03;100165.25;;;5.04;78.30
68822;BME280;55834;50.870;4.606;2023-04-01T22:07:47;100162.72;;;4.97;80.47
68822;BME280;55834;50.870;4.606;2023-04-01T22:18:33;100167.34;;;5.92;76.11
68822;BME280;55834;50.870;4.606;2023-04-01T22:21:07;100177.53;;;5.56;77.30
68822;BME280;55834;50.870;4.606;2023-04-01T22:23:44;100201.09;;;4.98;77.84
68822;BME280;55834;50.870;4.606;2023-04-01T22:29:02;100182.88;;;5.51;76.81
68822;BME280;55834;50.870;4.606;2023-04-01T22:31:40;100182.72;;;5.59;76.07
68822;BME280;55834;50.870;4.606;2023-04-01T22:37:10;100197.84;;;4.80;79.11
68822;BME280;55834;50.870;4.606;2023-04-01T22:43:34;100207.50;;;5.39;76.46
68822;BME280;55834;50.870;4.606;2023-04-01T22:45:54;100216.22;;;5.38;76.23
68822;BME280;55834;50.870;4.606;2023-04-01T22:51:03;100225.81;;;5.39;75.96
68822;BME280;55834;50.870;4.606;2023-04-01T22:56:36;100232.09;;;4.61;79.52
68822;BME280;55834;50.870;4.606;2023-04-01T23:01:54;100234.09;;;5.10;77.88
68822;BME280;55834;50.870;4.606;2023-04-01T23:04:24;100241.72;;;5.27;79.36
68822;BME280;55834;50.870;4.606;2023-04-01T23:06:59;100248.28;;;4.89;80.77
68822;BME280;55834;50.870;4.606;2023-04-01T23:09:27;100246.88;;;4.64;81.41
68822;BME280;55834;50.870;4.606;2023-04-01T23:17:31;100268.09;;;4.33;82.70
68822;BME280;55834;50.870;4.606;2023-04-01T23:25:42;100283.41;;;3.80;83.89
68822;BME280;55834;50.870;4.606;2023-04-01T23:33:21;100278.75;;;4.93;79.08
68822;BME280;55834;50.870;4.606;2023-04-01T23:36:11;100296.41;;;3.85;82.56
68822;BME280;55834;50.870;4.606;2023-04-01T23:38:40;100284.84;;;4.92;79.97